首页
METAR-TAF:

METAR-TAF

机场 :

墨西卡利, 墨西哥

纬度: 32-37-50N, 经度: 115-14-30W, 海拔: 22米

当前天气观测

该预报发布于38分钟前的22:40 UTC
风速9节,风向
温度 44°C
湿度 8%
气压 1002 hPa
能見度: 16.1公里
天空无云

METAR: MMML 152240Z 17009KT 10SM SKC 44/02 A2960 RMK HZY

时间: 18:18 (23:18 UTC)

预报

该预报发布于6小时和27分钟前的16:51 UTC
预报有效从15日的 18点(UTC)到 16日的 18点(UTC)
风速10节,风向南转南东
能見度: 10公里
天空无云
从 16日的 0300点(UTC)
风速5节,风向南转南东
能見度: 10公里
天空无云
从 16日的 1600点(UTC)
风速10节,风向南转南东
能見度: 10公里
天空无云

TAF: MMML 151651Z 1518/1618 16010KT P6SM SKC FM160300 16005KT P6SM SKC FM161600 16010KT P6SM SKC

超过4000个机场的气象观测和天气预报(METAR&TAF报告)。

可查询的气象台以黄色和红色小点在地图上表示。

将鼠标移到小点上方,可查看气象台名称。

然后点击查看天气观测和预报。

如需切换地图:点击带黑十字的绿色按钮放大地图;点击带横线的绿色按钮缩小地图;或者点击绿色箭头查看邻近地区的地图。


METAR-TAF: